sensor_id;sensor_type;location;lat;lon;timestamp;temperature;humidity
10282;DHT22;5186;59.472;18.048;2022-07-23T00:02:06;18.60;99.90
10282;DHT22;5186;59.472;18.048;2022-07-23T00:04:33;18.60;99.90
10282;DHT22;5186;59.472;18.048;2022-07-23T00:06:59;18.60;99.90
10282;DHT22;5186;59.472;18.048;2022-07-23T00:09:24;18.50;99.90
10282;DHT22;5186;59.472;18.048;2022-07-23T00:11:50;18.50;99.90
10282;DHT22;5186;59.472;18.048;2022-07-23T00:14:16;18.50;99.90
10282;DHT22;5186;59.472;18.048;2022-07-23T00:16:42;18.40;99.90
10282;DHT22;5186;59.472;18.048;2022-07-23T00:19:07;18.40;99.90
10282;DHT22;5186;59.472;18.048;2022-07-23T00:21:33;18.30;99.90
10282;DHT22;5186;59.472;18.048;2022-07-23T00:23:59;18.20;99.90
10282;DHT22;5186;59.472;18.048;2022-07-23T00:26:24;18.20;99.90
10282;DHT22;5186;59.472;18.048;2022-07-23T00:28:50;18.20;99.90
10282;DHT22;5186;59.472;18.048;2022-07-23T00:31:16;18.20;99.90
10282;DHT22;5186;59.472;18.048;2022-07-23T00:33:45;18.10;99.90
10282;DHT22;5186;59.472;18.048;2022-07-23T00:36:10;18.20;99.90
10282;DHT22;5186;59.472;18.048;2022-07-23T00:38:36;18.10;99.90
10282;DHT22;5186;59.472;18.048;2022-07-23T00:41:01;18.10;99.90
10282;DHT22;5186;59.472;18.048;2022-07-23T00:43:27;18.00;99.90
10282;DHT22;5186;59.472;18.048;2022-07-23T00:45:53;18.00;99.90
10282;DHT22;5186;59.472;18.048;2022-07-23T00:48:18;18.00;99.90
10282;DHT22;5186;59.472;18.048;2022-07-23T00:50:44;18.00;99.90
10282;DHT22;5186;59.472;18.048;2022-07-23T00:53:10;17.90;99.90
10282;DHT22;5186;59.472;18.048;2022-07-23T00:55:37;17.90;99.90
10282;DHT22;5186;59.472;18.048;2022-07-23T00:58:03;17.80;99.90
10282;DHT22;5186;59.472;18.048;2022-07-23T01:00:29;17.70;99.90
10282;DHT22;5186;59.472;18.048;2022-07-23T01:02:55;17.60;99.90
10282;DHT22;5186;59.472;18.048;2022-07-23T01:05:21;17.50;99.90
10282;DHT22;5186;59.472;18.048;2022-07-23T01:07:50;17.50;99.90
10282;DHT22;5186;59.472;18.048;2022-07-23T01:10:17;17.50;99.90
10282;DHT22;5186;59.472;18.048;2022-07-23T01:13:03;17.40;99.90
10282;DHT22;5186;59.472;18.048;2022-07-23T01:15:29;17.30;99.90
10282;DHT22;5186;59.472;18.048;2022-07-23T01:17:55;17.30;99.90
10282;DHT22;5186;59.472;18.048;2022-07-23T01:20:21;17.30;99.90
10282;DHT22;5186;59.472;18.048;2022-07-23T01:22:47;17.30;99.90
10282;DHT22;5186;59.472;18.048;2022-07-23T01:25:14;17.30;99.90
10282;DHT22;5186;59.472;18.048;2022-07-23T01:27:39;17.20;99.90
10282;DHT22;5186;59.472;18.048;2022-07-23T01:30:05;17.20;99.90
10282;DHT22;5186;59.472;18.048;2022-07-23T01:32:31;17.10;99.90
10282;DHT22;5186;59.472;18.048;2022-07-23T01:34:57;17.20;99.90
10282;DHT22;5186;59.472;18.048;2022-07-23T01:37:23;17.20;99.90
10282;DHT22;5186;59.472;18.048;2022-07-23T01:39:48;17.10;99.90
10282;DHT22;5186;59.472;18.048;2022-07-23T01:42:14;17.10;99.90
10282;DHT22;5186;59.472;18.048;2022-07-23T01:44:40;17.10;99.90
10282;DHT22;5186;59.472;18.048;2022-07-23T01:47:05;17.10;99.90
10282;DHT22;5186;59.472;18.048;2022-07-23T01:49:31;17.10;99.90
10282;DHT22;5186;59.472;18.048;2022-07-23T01:51:57;17.00;99.90
10282;DHT22;5186;59.472;18.048;2022-07-23T01:54:30;17.00;99.90
10282;DHT22;5186;59.472;18.048;2022-07-23T01:56:56;17.00;99.90
10282;DHT22;5186;59.472;18.048;2022-07-23T01:59:23;16.90;99.90
10282;DHT22;5186;59.472;18.048;2022-07-23T02:01:49;16.90;99.90
10282;DHT22;5186;59.472;18.048;2022-07-23T02:04:21;16.80;99.90
10282;DHT22;5186;59.472;18.048;2022-07-23T02:06:48;16.70;99.90
10282;DHT22;5186;59.472;18.048;2022-07-23T02:09:14;16.80;99.90
10282;DHT22;5186;59.472;18.048;2022-07-23T02:11:40;16.70;99.90
10282;DHT22;5186;59.472;18.048;2022-07-23T02:14:06;16.80;99.90
10282;DHT22;5186;59.472;18.048;2022-07-23T02:16:32;16.80;99.90
10282;DHT22;5186;59.472;18.048;2022-07-23T02:18:57;16.70;99.90
10282;DHT22;5186;59.472;18.048;2022-07-23T02:21:23;16.70;99.90
10282;DHT22;5186;59.472;18.048;2022-07-23T02:23:49;16.60;99.90
10282;DHT22;5186;59.472;18.048;2022-07-23T02:26:15;16.60;99.90
10282;DHT22;5186;59.472;18.048;2022-07-23T02:28:40;16.60;99.90
10282;DHT22;5186;59.472;18.048;2022-07-23T02:31:06;16.60;99.90
10282;DHT22;5186;59.472;18.048;2022-07-23T02:33:32;16.60;99.90
10282;DHT22;5186;59.472;18.048;2022-07-23T02:35:58;16.50;99.90
10282;DHT22;5186;59.472;18.048;2022-07-23T02:38:24;16.60;99.90
10282;DHT22;5186;59.472;18.048;2022-07-23T02:40:49;16.50;99.90
10282;DHT22;5186;59.472;18.048;2022-07-23T02:43:15;16.50;99.90
10282;DHT22;5186;59.472;18.048;2022-07-23T02:45:41;16.50;99.90
10282;DHT22;5186;59.472;18.048;2022-07-23T02:48:06;16.60;99.90
10282;DHT22;5186;59.472;18.048;2022-07-23T02:50:32;16.60;99.90
10282;DHT22;5186;59.472;18.048;2022-07-23T02:52:58;16.60;99.90
10282;DHT22;5186;59.472;18.048;2022-07-23T02:55:23;16.60;99.90
10282;DHT22;5186;59.472;18.048;2022-07-23T02:57:49;16.60;99.90
10282;DHT22;5186;59.472;18.048;2022-07-23T03:00:15;16.50;99.90
10282;DHT22;5186;59.472;18.048;2022-07-23T03:02:41;16.60;99.90
10282;DHT22;5186;59.472;18.048;2022-07-23T03:05:07;16.50;99.90
10282;DHT22;5186;59.472;18.048;2022-07-23T03:07:32;16.50;99.90
10282;DHT22;5186;59.472;18.048;2022-07-23T03:09:58;16.50;99.90
10282;DHT22;5186;59.472;18.048;2022-07-23T03:12:24;16.50;99.90
10282;DHT22;5186;59.472;18.048;2022-07-23T03:14:49;16.50;99.90
10282;DHT22;5186;59.472;18.048;2022-07-23T03:17:15;16.50;99.90
10282;DHT22;5186;59.472;18.048;2022-07-23T03:19:41;16.50;99.90
10282;DHT22;5186;59.472;18.048;2022-07-23T03:22:07;16.40;99.90
10282;DHT22;5186;59.472;18.048;2022-07-23T03:24:33;16.50;99.90
10282;DHT22;5186;59.472;18.048;2022-07-23T03:27:17;16.50;99.90
10282;DHT22;5186;59.472;18.048;2022-07-23T03:29:43;16.50;99.90
10282;DHT22;5186;59.472;18.048;2022-07-23T03:32:08;16.50;99.90
10282;DHT22;5186;59.472;18.048;2022-07-23T03:34:35;16.50;99.90
10282;DHT22;5186;59.472;18.048;2022-07-23T03:37:01;16.50;99.90
10282;DHT22;5186;59.472;18.048;2022-07-23T03:39:26;16.50;99.90
10282;DHT22;5186;59.472;18.048;2022-07-23T03:41:52;16.50;99.90
10282;DHT22;5186;59.472;18.048;2022-07-23T03:44:17;16.60;99.90
10282;DHT22;5186;59.472;18.048;2022-07-23T03:46:43;16.50;99.90
10282;DHT22;5186;59.472;18.048;2022-07-23T03:49:09;16.60;99.90
10282;DHT22;5186;59.472;18.048;2022-07-23T03:51:34;16.50;99.90
10282;DHT22;5186;59.472;18.048;2022-07-23T03:54:00;16.50;99.90
10282;DHT22;5186;59.472;18.048;2022-07-23T03:56:27;16.60;99.90
10282;DHT22;5186;59.472;18.048;2022-07-23T03:58:53;16.60;99.90
10282;DHT22;5186;59.472;18.048;2022-07-23T04:01:19;16.60;99.90
10282;DHT22;5186;59.472;18.048;2022-07-23T04:03:44;16.60;99.90
10282;DHT22;5186;59.472;18.048;2022-07-23T04:06:11;16.60;99.90
10282;DHT22;5186;59.472;18.048;2022-07-23T04:08:37;16.50;99.90
10282;DHT22;5186;59.472;18.048;2022-07-23T04:11:03;16.50;99.90
10282;DHT22;5186;59.472;18.048;2022-07-23T04:13:29;16.50;99.90
10282;DHT22;5186;59.472;18.048;2022-07-23T04:15:55;16.60;99.90
10282;DHT22;5186;59.472;18.048;2022-07-23T04:18:20;16.60;99.90
10282;DHT22;5186;59.472;18.048;2022-07-23T04:20:50;16.70;99.90
10282;DHT22;5186;59.472;18.048;2022-07-23T04:23:16;16.70;99.90
10282;DHT22;5186;59.472;18.048;2022-07-23T04:25:42;16.70;99.90
10282;DHT22;5186;59.472;18.048;2022-07-23T04:28:08;16.80;99.90
10282;DHT22;5186;59.472;18.048;2022-07-23T04:30:34;16.80;99.90
10282;DHT22;5186;59.472;18.048;2022-07-23T04:33:00;16.70;99.90
10282;DHT22;5186;59.472;18.048;2022-07-23T04:35:26;16.70;99.90
10282;DHT22;5186;59.472;18.048;2022-07-23T04:37:52;16.80;99.90
10282;DHT22;5186;59.472;18.048;2022-07-23T04:40:18;16.80;99.90
10282;DHT22;5186;59.472;18.048;2022-07-23T04:42:43;16.90;99.90
10282;DHT22;5186;59.472;18.048;2022-07-23T04:45:09;16.80;99.90
10282;DHT22;5186;59.472;18.048;2022-07-23T04:47:35;16.80;99.90
10282;DHT22;5186;59.472;18.048;2022-07-23T04:50:00;16.80;99.90
10282;DHT22;5186;59.472;18.048;2022-07-23T04:52:26;16.80;99.90
10282;DHT22;5186;59.472;18.048;2022-07-23T04:54:52;16.80;99.90
10282;DHT22;5186;59.472;18.048;2022-07-23T04:57:18;16.80;99.90
10282;DHT22;5186;59.472;18.048;2022-07-23T04:59:43;16.80;99.90
10282;DHT22;5186;59.472;18.048;2022-07-23T05:02:09;16.70;99.90
10282;DHT22;5186;59.472;18.048;2022-07-23T05:04:35;16.70;99.90
10282;DHT22;5186;59.472;18.048;2022-07-23T05:07:00;16.80;99.90
10282;DHT22;5186;59.472;18.048;2022-07-23T05:09:26;16.80;99.90
10282;DHT22;5186;59.472;18.048;2022-07-23T05:11:52;16.80;99.90
10282;DHT22;5186;59.472;18.048;2022-07-23T05:14:17;16.80;99.90
10282;DHT22;5186;59.472;18.048;2022-07-23T05:16:43;16.90;99.90
10282;DHT22;5186;59.472;18.048;2022-07-23T05:19:09;16.90;99.90
10282;DHT22;5186;59.472;18.048;2022-07-23T05:21:34;16.90;99.90
10282;DHT22;5186;59.472;18.048;2022-07-23T05:24:00;16.90;99.90
10282;DHT22;5186;59.472;18.048;2022-07-23T05:26:26;16.90;99.90
10282;DHT22;5186;59.472;18.048;2022-07-23T05:28:51;17.00;99.90
10282;DHT22;5186;59.472;18.048;2022-07-23T05:31:17;17.00;99.90
10282;DHT22;5186;59.472;18.048;2022-07-23T05:33:43;17.10;99.90
10282;DHT22;5186;59.472;18.048;2022-07-23T05:36:09;17.10;99.90
10282;DHT22;5186;59.472;18.048;2022-07-23T05:38:35;17.20;99.90
10282;DHT22;5186;59.472;18.048;2022-07-23T05:41:01;17.20;99.90
10282;DHT22;5186;59.472;18.048;2022-07-23T05:43:27;17.10;99.90
10282;DHT22;5186;59.472;18.048;2022-07-23T05:45:53;17.10;99.90
10282;DHT22;5186;59.472;18.048;2022-07-23T05:48:19;17.20;99.90
10282;DHT22;5186;59.472;18.048;2022-07-23T05:50:44;17.20;99.90
10282;DHT22;5186;59.472;18.048;2022-07-23T05:53:13;17.20;99.90
10282;DHT22;5186;59.472;18.048;2022-07-23T05:55:39;17.20;99.90
10282;DHT22;5186;59.472;18.048;2022-07-23T05:58:04;17.30;99.90
10282;DHT22;5186;59.472;18.048;2022-07-23T06:00:30;17.30;99.90
10282;DHT22;5186;59.472;18.048;2022-07-23T06:02:56;17.30;99.90
10282;DHT22;5186;59.472;18.048;2022-07-23T06:05:23;17.30;99.90
10282;DHT22;5186;59.472;18.048;2022-07-23T06:07:48;17.30;99.90
10282;DHT22;5186;59.472;18.048;2022-07-23T06:10:14;17.30;99.90
10282;DHT22;5186;59.472;18.048;2022-07-23T06:12:40;17.40;99.90
10282;DHT22;5186;59.472;18.048;2022-07-23T06:15:09;17.40;99.90
10282;DHT22;5186;59.472;18.048;2022-07-23T06:17:35;17.40;99.90
10282;DHT22;5186;59.472;18.048;2022-07-23T06:20:01;17.40;99.90
10282;DHT22;5186;59.472;18.048;2022-07-23T06:22:27;17.40;99.90
10282;DHT22;5186;59.472;18.048;2022-07-23T06:24:52;17.50;99.90
10282;DHT22;5186;59.472;18.048;2022-07-23T06:27:21;17.50;99.90
10282;DHT22;5186;59.472;18.048;2022-07-23T06:29:47;17.50;99.90
10282;DHT22;5186;59.472;18.048;2022-07-23T06:32:13;17.60;99.90
10282;DHT22;5186;59.472;18.048;2022-07-23T06:34:38;17.60;99.90
10282;DHT22;5186;59.472;18.048;2022-07-23T06:37:04;17.60;99.90
10282;DHT22;5186;59.472;18.048;2022-07-23T06:39:29;17.70;99.90
10282;DHT22;5186;59.472;18.048;2022-07-23T06:41:55;17.70;99.90
10282;DHT22;5186;59.472;18.048;2022-07-23T06:44:21;17.70;99.90
10282;DHT22;5186;59.472;18.048;2022-07-23T06:46:47;17.70;99.90
10282;DHT22;5186;59.472;18.048;2022-07-23T06:49:12;17.70;99.90
10282;DHT22;5186;59.472;18.048;2022-07-23T06:51:38;17.80;99.90
10282;DHT22;5186;59.472;18.048;2022-07-23T06:54:04;17.80;99.90
10282;DHT22;5186;59.472;18.048;2022-07-23T06:56:30;17.80;99.90
10282;DHT22;5186;59.472;18.048;2022-07-23T06:58:55;17.90;99.90
10282;DHT22;5186;59.472;18.048;2022-07-23T07:01:23;18.00;99.90
10282;DHT22;5186;59.472;18.048;2022-07-23T07:03:49;18.10;99.90
10282;DHT22;5186;59.472;18.048;2022-07-23T07:06:14;18.20;99.90
10282;DHT22;5186;59.472;18.048;2022-07-23T07:08:40;18.20;99.90
10282;DHT22;5186;59.472;18.048;2022-07-23T07:11:08;18.30;99.90
10282;DHT22;5186;59.472;18.048;2022-07-23T07:13:34;18.30;99.90
10282;DHT22;5186;59.472;18.048;2022-07-23T07:15:59;18.30;99.90
10282;DHT22;5186;59.472;18.048;2022-07-23T07:18:25;18.20;99.90
10282;DHT22;5186;59.472;18.048;2022-07-23T07:20:51;18.30;99.90
10282;DHT22;5186;59.472;18.048;2022-07-23T07:23:16;18.30;99.90
10282;DHT22;5186;59.472;18.048;2022-07-23T07:25:45;18.40;99.90
10282;DHT22;5186;59.472;18.048;2022-07-23T07:28:10;18.40;99.90
10282;DHT22;5186;59.472;18.048;2022-07-23T07:30:36;18.40;99.90
10282;DHT22;5186;59.472;18.048;2022-07-23T07:33:02;18.40;99.90
10282;DHT22;5186;59.472;18.048;2022-07-23T07:35:27;18.40;99.90
10282;DHT22;5186;59.472;18.048;2022-07-23T07:37:53;18.50;99.90
10282;DHT22;5186;59.472;18.048;2022-07-23T07:40:19;18.50;99.90
10282;DHT22;5186;59.472;18.048;2022-07-23T07:42:51;18.60;99.90
10282;DHT22;5186;59.472;18.048;2022-07-23T07:45:17;18.60;99.90
10282;DHT22;5186;59.472;18.048;2022-07-23T07:47:44;18.60;99.90
10282;DHT22;5186;59.472;18.048;2022-07-23T07:50:10;18.70;99.90
10282;DHT22;5186;59.472;18.048;2022-07-23T07:52:39;18.70;99.90
10282;DHT22;5186;59.472;18.048;2022-07-23T07:55:06;18.80;99.90
10282;DHT22;5186;59.472;18.048;2022-07-23T07:57:33;18.80;99.90
10282;DHT22;5186;59.472;18.048;2022-07-23T07:59:58;18.80;99.90
10282;DHT22;5186;59.472;18.048;2022-07-23T08:02:24;18.90;99.90
10282;DHT22;5186;59.472;18.048;2022-07-23T08:04:50;18.90;99.90
10282;DHT22;5186;59.472;18.048;2022-07-23T08:07:15;18.90;99.90
10282;DHT22;5186;59.472;18.048;2022-07-23T08:09:41;18.90;99.90
10282;DHT22;5186;59.472;18.048;2022-07-23T08:12:07;18.90;99.90
10282;DHT22;5186;59.472;18.048;2022-07-23T08:14:33;18.90;99.90
10282;DHT22;5186;59.472;18.048;2022-07-23T08:16:59;19.00;99.90
10282;DHT22;5186;59.472;18.048;2022-07-23T08:19:24;18.90;99.90
10282;DHT22;5186;59.472;18.048;2022-07-23T08:21:50;18.90;99.90
10282;DHT22;5186;59.472;18.048;2022-07-23T08:24:16;18.90;99.90
10282;DHT22;5186;59.472;18.048;2022-07-23T08:26:41;18.90;99.90
10282;DHT22;5186;59.472;18.048;2022-07-23T08:29:07;18.90;99.90
10282;DHT22;5186;59.472;18.048;2022-07-23T08:31:33;18.90;99.90
10282;DHT22;5186;59.472;18.048;2022-07-23T08:34:00;19.00;99.90
10282;DHT22;5186;59.472;18.048;2022-07-23T08:36:26;19.10;99.90
10282;DHT22;5186;59.472;18.048;2022-07-23T08:38:58;19.10;99.90
10282;DHT22;5186;59.472;18.048;2022-07-23T08:41:24;19.10;99.90
10282;DHT22;5186;59.472;18.048;2022-07-23T08:43:50;19.10;99.90
10282;DHT22;5186;59.472;18.048;2022-07-23T08:46:17;19.10;99.90
10282;DHT22;5186;59.472;18.048;2022-07-23T08:48:47;19.10;99.90
10282;DHT22;5186;59.472;18.048;2022-07-23T08:51:14;19.00;99.90
10282;DHT22;5186;59.472;18.048;2022-07-23T08:53:40;19.10;99.90
10282;DHT22;5186;59.472;18.048;2022-07-23T08:56:07;19.10;99.90
10282;DHT22;5186;59.472;18.048;2022-07-23T08:58:33;19.10;99.90
10282;DHT22;5186;59.472;18.048;2022-07-23T09:00:59;19.10;99.90
10282;DHT22;5186;59.472;18.048;2022-07-23T09:03:27;19.10;99.90
10282;DHT22;5186;59.472;18.048;2022-07-23T09:05:54;19.10;99.90
10282;DHT22;5186;59.472;18.048;2022-07-23T09:11:10;19.10;99.90
10282;DHT22;5186;59.472;18.048;2022-07-23T09:16:19;19.20;99.90
10282;DHT22;5186;59.472;18.048;2022-07-23T09:18:47;19.10;99.90
10282;DHT22;5186;59.472;18.048;2022-07-23T09:23:45;19.20;99.90
10282;DHT22;5186;59.472;18.048;2022-07-23T09:26:23;19.20;99.90
10282;DHT22;5186;59.472;18.048;2022-07-23T09:28:55;19.30;99.90
10282;DHT22;5186;59.472;18.048;2022-07-23T09:31:21;19.40;99.90
10282;DHT22;5186;59.472;18.048;2022-07-23T09:33:47;19.40;99.90
10282;DHT22;5186;59.472;18.048;2022-07-23T09:36:13;19.40;99.90
10282;DHT22;5186;59.472;18.048;2022-07-23T09:38:49;19.30;99.90
10282;DHT22;5186;59.472;18.048;2022-07-23T09:41:15;19.30;99.90
10282;DHT22;5186;59.472;18.048;2022-07-23T09:43:41;19.30;99.90
10282;DHT22;5186;59.472;18.048;2022-07-23T09:46:26;19.30;99.90
10282;DHT22;5186;59.472;18.048;2022-07-23T09:48:53;19.40;99.90
10282;DHT22;5186;59.472;18.048;2022-07-23T09:51:21;19.30;99.90
10282;DHT22;5186;59.472;18.048;2022-07-23T09:53:50;19.30;99.90
10282;DHT22;5186;59.472;18.048;2022-07-23T09:56:16;19.30;99.90
10282;DHT22;5186;59.472;18.048;2022-07-23T09:58:44;19.30;99.90
10282;DHT22;5186;59.472;18.048;2022-07-23T10:01:18;19.20;99.90
10282;DHT22;5186;59.472;18.048;2022-07-23T10:03:45;19.20;99.90
10282;DHT22;5186;59.472;18.048;2022-07-23T10:06:14;19.30;99.90
10282;DHT22;5186;59.472;18.048;2022-07-23T10:08:41;19.30;99.90
10282;DHT22;5186;59.472;18.048;2022-07-23T10:11:09;19.30;99.90
10282;DHT22;5186;59.472;18.048;2022-07-23T10:13:35;19.20;99.90
10282;DHT22;5186;59.472;18.048;2022-07-23T10:16:20;19.30;99.90
10282;DHT22;5186;59.472;18.048;2022-07-23T10:18:46;19.20;99.90
10282;DHT22;5186;59.472;18.048;2022-07-23T10:21:42;19.30;99.90
10282;DHT22;5186;59.472;18.048;2022-07-23T10:24:36;19.30;99.90
10282;DHT22;5186;59.472;18.048;2022-07-23T10:29:50;19.10;99.90
10282;DHT22;5186;59.472;18.048;2022-07-23T10:37:57;18.90;99.90
10282;DHT22;5186;59.472;18.048;2022-07-23T10:40:25;18.80;99.90
10282;DHT22;5186;59.472;18.048;2022-07-23T10:42:52;18.80;99.90
10282;DHT22;5186;59.472;18.048;2022-07-23T10:47:54;18.70;99.90
10282;DHT22;5186;59.472;18.048;2022-07-23T10:50:21;18.70;99.90
10282;DHT22;5186;59.472;18.048;2022-07-23T10:58:01;18.60;99.90
10282;DHT22;5186;59.472;18.048;2022-07-23T11:00:32;18.60;99.90
10282;DHT22;5186;59.472;18.048;2022-07-23T11:03:03;18.60;99.90
10282;DHT22;5186;59.472;18.048;2022-07-23T11:05:43;18.50;99.90
10282;DHT22;5186;59.472;18.048;2022-07-23T11:10:54;18.50;99.90
10282;DHT22;5186;59.472;18.048;2022-07-23T11:24:05;18.50;99.90
10282;DHT22;5186;59.472;18.048;2022-07-23T11:32:05;18.50;99.90
10282;DHT22;5186;59.472;18.048;2022-07-23T11:37:05;18.50;99.90
10282;DHT22;5186;59.472;18.048;2022-07-23T11:39:32;18.40;99.90
10282;DHT22;5186;59.472;18.048;2022-07-23T11:42:00;18.40;99.90
10282;DHT22;5186;59.472;18.048;2022-07-23T11:44:30;18.40;99.90
10282;DHT22;5186;59.472;18.048;2022-07-23T11:47:00;18.40;99.90
10282;DHT22;5186;59.472;18.048;2022-07-23T11:49:27;18.40;99.90
10282;DHT22;5186;59.472;18.048;2022-07-23T11:54:32;18.50;99.90
10282;DHT22;5186;59.472;18.048;2022-07-23T11:57:02;18.50;99.90
10282;DHT22;5186;59.472;18.048;2022-07-23T11:59:31;18.50;99.90
10282;DHT22;5186;59.472;18.048;2022-07-23T12:02:03;18.60;99.90
10282;DHT22;5186;59.472;18.048;2022-07-23T12:04:39;18.70;99.90
10282;DHT22;5186;59.472;18.048;2022-07-23T12:09:59;18.70;99.90
10282;DHT22;5186;59.472;18.048;2022-07-23T12:12:25;18.60;99.90
10282;DHT22;5186;59.472;18.048;2022-07-23T12:14:54;18.60;99.90
10282;DHT22;5186;59.472;18.048;2022-07-23T12:17:22;18.60;99.90
10282;DHT22;5186;59.472;18.048;2022-07-23T12:19:56;18.60;99.90
10282;DHT22;5186;59.472;18.048;2022-07-23T12:22:24;18.60;99.90
10282;DHT22;5186;59.472;18.048;2022-07-23T12:25:04;18.60;99.90
10282;DHT22;5186;59.472;18.048;2022-07-23T12:27:30;18.70;99.90
10282;DHT22;5186;59.472;18.048;2022-07-23T12:29:57;18.80;99.90
10282;DHT22;5186;59.472;18.048;2022-07-23T12:32:24;18.80;99.90
10282;DHT22;5186;59.472;18.048;2022-07-23T12:35:06;18.90;99.90
10282;DHT22;5186;59.472;18.048;2022-07-23T12:37:37;18.90;99.90
10282;DHT22;5186;59.472;18.048;2022-07-23T12:40:26;18.90;99.90
10282;DHT22;5186;59.472;18.048;2022-07-23T12:43:05;18.90;99.90
10282;DHT22;5186;59.472;18.048;2022-07-23T12:50:52;19.00;99.90
10282;DHT22;5186;59.472;18.048;2022-07-23T12:53:30;19.10;99.90
10282;DHT22;5186;59.472;18.048;2022-07-23T12:56:08;19.20;99.90
10282;DHT22;5186;59.472;18.048;2022-07-23T12:58:53;19.20;99.90
10282;DHT22;5186;59.472;18.048;2022-07-23T13:03:56;19.20;99.90
10282;DHT22;5186;59.472;18.048;2022-07-23T13:06:23;19.30;99.90
10282;DHT22;5186;59.472;18.048;2022-07-23T13:08:48;19.30;99.90
10282;DHT22;5186;59.472;18.048;2022-07-23T13:11:14;19.30;99.90
10282;DHT22;5186;59.472;18.048;2022-07-23T13:13:41;19.40;99.90
10282;DHT22;5186;59.472;18.048;2022-07-23T13:16:07;19.40;99.90
10282;DHT22;5186;59.472;18.048;2022-07-23T13:18:33;19.40;99.90
10282;DHT22;5186;59.472;18.048;2022-07-23T13:20:59;19.50;99.90
10282;DHT22;5186;59.472;18.048;2022-07-23T13:23:25;19.50;99.90
10282;DHT22;5186;59.472;18.048;2022-07-23T13:25:52;19.50;99.90
10282;DHT22;5186;59.472;18.048;2022-07-23T13:28:20;19.50;99.90
10282;DHT22;5186;59.472;18.048;2022-07-23T13:30:47;19.60;99.90
10282;DHT22;5186;59.472;18.048;2022-07-23T13:33:15;19.60;99.90
10282;DHT22;5186;59.472;18.048;2022-07-23T13:35:41;19.60;99.90
10282;DHT22;5186;59.472;18.048;2022-07-23T13:38:07;19.60;99.90
10282;DHT22;5186;59.472;18.048;2022-07-23T13:40:37;19.50;99.90
10282;DHT22;5186;59.472;18.048;2022-07-23T13:43:09;19.50;99.90
10282;DHT22;5186;59.472;18.048;2022-07-23T13:45:35;19.50;99.90
10282;DHT22;5186;59.472;18.048;2022-07-23T13:48:00;19.50;99.90
10282;DHT22;5186;59.472;18.048;2022-07-23T13:50:26;19.50;99.90
10282;DHT22;5186;59.472;18.048;2022-07-23T13:52:52;19.50;99.90
10282;DHT22;5186;59.472;18.048;2022-07-23T13:55:18;19.40;99.90
10282;DHT22;5186;59.472;18.048;2022-07-23T13:57:43;19.40;99.90
10282;DHT22;5186;59.472;18.048;2022-07-23T14:00:10;19.50;99.90
10282;DHT22;5186;59.472;18.048;2022-07-23T14:02:38;19.40;99.90
10282;DHT22;5186;59.472;18.048;2022-07-23T14:05:06;19.30;99.90
10282;DHT22;5186;59.472;18.048;2022-07-23T14:07:33;19.40;99.90
10282;DHT22;5186;59.472;18.048;2022-07-23T14:09:58;19.30;99.90
10282;DHT22;5186;59.472;18.048;2022-07-23T14:12:24;19.40;99.90
10282;DHT22;5186;59.472;18.048;2022-07-23T14:14:50;19.40;99.90
10282;DHT22;5186;59.472;18.048;2022-07-23T14:17:19;19.40;99.90
10282;DHT22;5186;59.472;18.048;2022-07-23T14:19:45;19.40;99.90
10282;DHT22;5186;59.472;18.048;2022-07-23T14:22:10;19.50;99.90
10282;DHT22;5186;59.472;18.048;2022-07-23T14:24:38;19.50;99.90
10282;DHT22;5186;59.472;18.048;2022-07-23T14:27:04;19.50;99.90
10282;DHT22;5186;59.472;18.048;2022-07-23T14:29:31;19.50;99.90
10282;DHT22;5186;59.472;18.048;2022-07-23T14:31:58;19.50;99.90
10282;DHT22;5186;59.472;18.048;2022-07-23T14:34:24;19.50;99.90
10282;DHT22;5186;59.472;18.048;2022-07-23T14:36:51;19.50;99.90
10282;DHT22;5186;59.472;18.048;2022-07-23T14:39:18;19.60;99.90
10282;DHT22;5186;59.472;18.048;2022-07-23T14:41:43;19.60;99.90
10282;DHT22;5186;59.472;18.048;2022-07-23T14:44:09;19.70;99.90
10282;DHT22;5186;59.472;18.048;2022-07-23T14:46:36;19.70;99.90
10282;DHT22;5186;59.472;18.048;2022-07-23T14:49:02;19.70;99.90
10282;DHT22;5186;59.472;18.048;2022-07-23T14:51:28;19.60;99.90
10282;DHT22;5186;59.472;18.048;2022-07-23T14:54:20;19.70;99.90
10282;DHT22;5186;59.472;18.048;2022-07-23T14:56:55;19.70;99.90
10282;DHT22;5186;59.472;18.048;2022-07-23T14:59:31;19.70;99.90
10282;DHT22;5186;59.472;18.048;2022-07-23T15:02:26;19.60;99.90
10282;DHT22;5186;59.472;18.048;2022-07-23T15:04:55;19.60;99.90
10282;DHT22;5186;59.472;18.048;2022-07-23T15:07:34;19.60;99.90
10282;DHT22;5186;59.472;18.048;2022-07-23T15:10:18;19.50;99.90
10282;DHT22;5186;59.472;18.048;2022-07-23T15:12:48;19.50;99.90
10282;DHT22;5186;59.472;18.048;2022-07-23T15:15:22;19.50;99.90
10282;DHT22;5186;59.472;18.048;2022-07-23T15:17:51;19.50;99.90
10282;DHT22;5186;59.472;18.048;2022-07-23T15:20:19;19.60;99.90
10282;DHT22;5186;59.472;18.048;2022-07-23T15:22:48;19.50;99.90
10282;DHT22;5186;59.472;18.048;2022-07-23T15:25:23;19.60;99.90
10282;DHT22;5186;59.472;18.048;2022-07-23T15:28:06;19.60;99.90
10282;DHT22;5186;59.472;18.048;2022-07-23T15:33:24;19.60;99.90
10282;DHT22;5186;59.472;18.048;2022-07-23T15:35:55;19.70;99.90
10282;DHT22;5186;59.472;18.048;2022-07-23T15:38:23;19.60;99.90
10282;DHT22;5186;59.472;18.048;2022-07-23T15:40:54;19.70;99.90
10282;DHT22;5186;59.472;18.048;2022-07-23T15:43:27;19.70;99.90
10282;DHT22;5186;59.472;18.048;2022-07-23T15:45:59;19.60;99.90
10282;DHT22;5186;59.472;18.048;2022-07-23T15:48:28;19.60;99.90
10282;DHT22;5186;59.472;18.048;2022-07-23T15:50:54;19.60;99.90
10282;DHT22;5186;59.472;18.048;2022-07-23T15:53:29;19.60;99.90
10282;DHT22;5186;59.472;18.048;2022-07-23T15:55:55;19.60;99.90
10282;DHT22;5186;59.472;18.048;2022-07-23T15:58:26;19.60;99.90
10282;DHT22;5186;59.472;18.048;2022-07-23T16:00:56;19.60;99.90
10282;DHT22;5186;59.472;18.048;2022-07-23T16:03:22;19.60;99.90
10282;DHT22;5186;59.472;18.048;2022-07-23T16:05:50;19.60;99.90
10282;DHT22;5186;59.472;18.048;2022-07-23T16:08:16;19.60;99.90
10282;DHT22;5186;59.472;18.048;2022-07-23T16:10:42;19.60;99.90
10282;DHT22;5186;59.472;18.048;2022-07-23T16:13:08;19.60;99.90
10282;DHT22;5186;59.472;18.048;2022-07-23T16:15:35;19.50;99.90
10282;DHT22;5186;59.472;18.048;2022-07-23T16:18:01;19.50;99.90
10282;DHT22;5186;59.472;18.048;2022-07-23T16:20:27;19.50;99.90
10282;DHT22;5186;59.472;18.048;2022-07-23T16:22:53;19.50;99.90
10282;DHT22;5186;59.472;18.048;2022-07-23T16:25:19;19.40;99.90
10282;DHT22;5186;59.472;18.048;2022-07-23T16:27:45;19.40;99.90
10282;DHT22;5186;59.472;18.048;2022-07-23T16:30:13;19.40;99.90
10282;DHT22;5186;59.472;18.048;2022-07-23T16:32:39;19.40;99.90
10282;DHT22;5186;59.472;18.048;2022-07-23T16:35:05;19.40;99.90